createdAt,value
2018-12-18T00:02:18.984Z,9.30
2018-12-18T00:04:54.097Z,13.73
2018-12-18T00:07:36.521Z,12.33
2018-12-18T00:13:00.335Z,13.13
2018-12-18T00:15:37.209Z,11.17
2018-12-18T00:18:17.599Z,10.30
2018-12-18T00:20:53.578Z,10.70
2018-12-18T00:26:27.863Z,13.20
2018-12-18T00:28:59.705Z,7.90
2018-12-18T00:31:30.985Z,13.60
2018-12-18T00:34:01.967Z,11.77
2018-12-18T00:36:34.238Z,8.53
2018-12-18T00:39:09.464Z,10.17
2018-12-18T00:41:40.973Z,12.20
2018-12-18T00:44:16.861Z,9.37
2018-12-18T00:46:48.645Z,11.70
2018-12-18T00:49:24.560Z,10.27
2018-12-18T00:51:56.475Z,9.97
2018-12-18T00:54:27.449Z,8.03
2018-12-18T00:56:58.371Z,8.93
2018-12-18T00:59:29.723Z,9.07
2018-12-18T01:02:00.732Z,8.90
2018-12-18T01:04:32.922Z,9.70
2018-12-18T01:07:04.384Z,8.53
2018-12-18T01:09:38.438Z,9.87
2018-12-18T01:12:11.037Z,11.17
2018-12-18T01:14:42.917Z,10.80
2018-12-18T01:17:13.936Z,11.60
2018-12-18T01:22:45.335Z,9.47
2018-12-18T01:25:16.962Z,10.07
2018-12-18T01:27:48.310Z,10.27
2018-12-18T01:30:24.363Z,8.70
2018-12-18T01:33:01.877Z,11.10
2018-12-18T01:35:43.893Z,9.20
2018-12-18T01:38:16.038Z,12.97
2018-12-18T01:40:48.192Z,11.27
2018-12-18T01:43:23.127Z,10.33
2018-12-18T01:46:00.248Z,13.47
2018-12-18T01:48:36.266Z,11.77
2018-12-18T01:51:08.028Z,12.83
2018-12-18T01:53:40.208Z,9.50
2018-12-18T01:56:12.113Z,12.20
2018-12-18T01:58:43.225Z,9.53
2018-12-18T02:01:14.765Z,12.30
2018-12-18T02:03:48.168Z,11.87
2018-12-18T02:06:19.032Z,12.83
2018-12-18T02:08:49.937Z,11.53
2018-12-18T02:11:20.958Z,11.40
2018-12-18T02:13:51.930Z,10.27
2018-12-18T02:16:22.875Z,11.07
2018-12-18T02:18:54.319Z,13.23
2018-12-18T02:21:25.235Z,11.23
2018-12-18T02:23:56.281Z,12.53
2018-12-18T02:26:27.527Z,10.80
2018-12-18T02:28:58.460Z,11.20
2018-12-18T02:31:35.348Z,11.00
2018-12-18T02:34:13.467Z,13.00
2018-12-18T02:36:42.896Z,12.00
2018-12-18T02:39:14.000Z,14.30
2018-12-18T02:41:45.668Z,11.30
2018-12-18T02:44:16.928Z,11.57
2018-12-18T02:46:47.925Z,9.27
2018-12-18T02:49:20.303Z,14.43
2018-12-18T02:51:51.567Z,11.40
2018-12-18T02:54:22.713Z,14.67
2018-12-18T02:56:54.785Z,14.37
2018-12-18T02:59:25.635Z,14.10
2018-12-18T03:01:56.576Z,13.60
2018-12-18T03:04:28.147Z,17.17
2018-12-18T03:07:04.386Z,21.33
2018-12-18T03:09:36.146Z,13.63
2018-12-18T03:12:08.632Z,14.03
2018-12-18T03:14:39.565Z,13.50
2018-12-18T03:17:10.497Z,11.37
2018-12-18T03:19:41.846Z,16.23
2018-12-18T03:22:12.882Z,10.87
2018-12-18T03:24:43.944Z,12.80
2018-12-18T03:27:14.884Z,10.73
2018-12-18T03:29:46.081Z,10.17
2018-12-18T03:32:21.824Z,12.10
2018-12-18T03:34:52.771Z,11.73
2018-12-18T03:37:24.146Z,12.43
2018-12-18T03:39:55.083Z,11.20
2018-12-18T03:42:27.253Z,14.17
2018-12-18T03:45:00.520Z,14.17
2018-12-18T03:47:31.792Z,14.57
2018-12-18T03:50:03.694Z,16.40
2018-12-18T03:52:34.656Z,14.23
2018-12-18T03:55:05.883Z,15.10
2018-12-18T03:57:37.633Z,13.03
2018-12-18T04:00:12.187Z,13.60
2018-12-18T04:02:43.212Z,15.40
2018-12-18T04:05:14.642Z,13.00
2018-12-18T04:07:45.675Z,13.47
2018-12-18T04:10:16.634Z,12.70
2018-12-18T04:12:47.531Z,15.27
2018-12-18T04:15:19.802Z,12.63
2018-12-18T04:17:50.704Z,14.27
2018-12-18T04:20:21.626Z,12.37
2018-12-18T04:23:07.764Z,10.97
2018-12-18T04:25:41.764Z,12.57
2018-12-18T04:28:13.073Z,16.23
2018-12-18T04:30:43.754Z,12.87
2018-12-18T04:33:14.540Z,13.67
2018-12-18T04:35:45.228Z,15.17
2018-12-18T04:38:15.917Z,13.80
2018-12-18T04:40:47.130Z,12.67
2018-12-18T04:43:17.882Z,9.53
2018-12-18T04:45:48.632Z,15.03
2018-12-18T04:48:19.489Z,14.10
2018-12-18T04:50:50.306Z,17.90
2018-12-18T04:53:21.031Z,11.20
2018-12-18T04:55:51.740Z,14.63
2018-12-18T04:58:22.643Z,12.80
2018-12-18T05:00:53.744Z,15.10
2018-12-18T05:03:24.878Z,13.60
2018-12-18T05:05:55.630Z,14.07
2018-12-18T05:08:26.513Z,17.83
2018-12-18T05:10:57.331Z,13.07
2018-12-18T05:13:28.075Z,14.67
2018-12-18T05:18:57.462Z,15.63
2018-12-18T05:21:28.281Z,12.63
2018-12-18T05:23:59.214Z,13.03
2018-12-18T05:26:30.069Z,15.43
2018-12-18T05:29:02.527Z,15.23
2018-12-18T05:31:34.054Z,15.83
2018-12-18T05:34:05.099Z,11.47
2018-12-18T05:36:35.962Z,18.00
2018-12-18T05:39:08.577Z,15.80
2018-12-18T05:41:39.580Z,13.33
2018-12-18T05:44:10.483Z,19.93
2018-12-18T05:46:41.303Z,16.07
2018-12-18T05:49:13.577Z,15.77
2018-12-18T05:51:44.357Z,12.40
2018-12-18T05:54:15.121Z,12.20
2018-12-18T05:56:45.999Z,11.83
2018-12-18T05:59:16.995Z,12.90
2018-12-18T06:01:47.866Z,10.83
2018-12-18T06:04:20.003Z,15.87
2018-12-18T06:06:50.825Z,13.13
2018-12-18T06:09:21.515Z,11.50
2018-12-18T06:11:53.328Z,15.10
2018-12-18T06:14:24.103Z,17.43
2018-12-18T06:16:59.192Z,11.53
2018-12-18T06:19:30.127Z,13.37
2018-12-18T06:22:01.398Z,13.63
2018-12-18T06:24:32.291Z,14.63
2018-12-18T06:27:04.869Z,16.20
2018-12-18T06:29:36.032Z,11.50
2018-12-18T06:32:06.841Z,13.60
2018-12-18T06:34:38.192Z,15.60
2018-12-18T06:37:09.247Z,14.23
2018-12-18T06:39:39.953Z,11.73
2018-12-18T06:42:11.095Z,14.17
2018-12-18T06:44:42.010Z,11.40
2018-12-18T06:47:16.009Z,13.20
2018-12-18T06:49:47.927Z,17.60
2018-12-18T06:52:18.663Z,14.07
2018-12-18T06:54:49.774Z,15.43
2018-12-18T06:57:20.867Z,20.63
2018-12-18T06:59:52.809Z,17.27
2018-12-18T07:02:24.044Z,16.50
2018-12-18T07:04:54.909Z,18.40
2018-12-18T07:07:25.700Z,16.30
2018-12-18T07:13:00.313Z,14.13
2018-12-18T07:15:31.130Z,16.33
2018-12-18T07:18:02.002Z,20.70
2018-12-18T07:20:33.207Z,16.93
2018-12-18T07:23:19.969Z,14.60
2018-12-18T07:25:52.080Z,14.33
2018-12-18T07:28:29.963Z,15.80
2018-12-18T07:31:00.996Z,20.97
2018-12-18T07:33:31.821Z,16.40
2018-12-18T07:36:03.590Z,17.67
2018-12-18T07:38:35.688Z,21.27
2018-12-18T07:41:06.490Z,16.97
2018-12-18T07:43:37.282Z,15.83
2018-12-18T07:46:08.441Z,15.33
2018-12-18T07:48:39.239Z,20.23
2018-12-18T07:51:11.629Z,19.27
2018-12-18T07:53:42.449Z,17.13
2018-12-18T07:56:13.831Z,17.87
2018-12-18T07:58:46.391Z,21.17
2018-12-18T08:01:17.140Z,19.03
2018-12-18T08:03:48.050Z,21.87
2018-12-18T08:06:19.247Z,18.27
2018-12-18T08:08:50.724Z,17.77
2018-12-18T08:11:21.539Z,17.83
2018-12-18T08:13:58.687Z,18.97
2018-12-18T08:16:30.799Z,24.40
2018-12-18T08:19:01.816Z,28.10
2018-12-18T08:21:33.999Z,23.27
2018-12-18T08:24:04.899Z,18.93
2018-12-18T08:26:35.699Z,27.07
2018-12-18T08:29:06.841Z,25.93
2018-12-18T08:31:40.270Z,21.53
2018-12-18T08:34:13.357Z,24.20
2018-12-18T08:36:44.409Z,20.27
2018-12-18T08:39:15.237Z,20.67
2018-12-18T08:41:46.461Z,19.80
2018-12-18T08:44:17.474Z,24.73
2018-12-18T08:46:48.549Z,19.13
2018-12-18T08:49:19.961Z,20.60
2018-12-18T08:51:51.611Z,23.80
2018-12-18T08:54:24.409Z,24.47
2018-12-18T08:56:58.806Z,22.33
2018-12-18T08:59:30.588Z,23.47
2018-12-18T09:02:02.489Z,25.87
2018-12-18T09:04:39.322Z,24.50
2018-12-18T09:10:11.718Z,26.33
2018-12-18T09:12:42.673Z,24.77
2018-12-18T09:15:18.784Z,21.03
2018-12-18T09:17:52.879Z,20.27
2018-12-18T09:20:28.841Z,22.43
2018-12-18T09:23:06.593Z,20.97
2018-12-18T09:25:39.418Z,22.47
2018-12-18T09:28:12.643Z,17.90
2018-12-18T09:30:44.437Z,18.20
2018-12-18T09:33:15.757Z,20.23
2018-12-18T09:35:53.744Z,19.43
2018-12-18T09:38:30.829Z,20.07
2018-12-18T09:41:09.880Z,21.00
2018-12-18T09:43:46.243Z,18.87
2018-12-18T09:46:21.579Z,20.23
2018-12-18T09:48:52.782Z,21.43
2018-12-18T09:51:29.051Z,22.50
2018-12-18T09:54:01.984Z,16.43
2018-12-18T09:56:51.413Z,21.20
2018-12-18T09:59:24.584Z,15.40
2018-12-18T10:01:59.174Z,15.53
2018-12-18T10:04:30.144Z,20.77
2018-12-18T10:07:05.135Z,17.87
2018-12-18T10:09:36.137Z,15.40
2018-12-18T10:12:07.524Z,16.37
2018-12-18T10:14:42.195Z,15.87
2018-12-18T10:17:13.286Z,15.40
2018-12-18T10:19:48.529Z,19.03
2018-12-18T10:22:20.989Z,15.00
2018-12-18T10:24:53.375Z,15.83
2018-12-18T10:27:29.233Z,15.07
2018-12-18T10:30:00.525Z,19.00
2018-12-18T10:32:36.631Z,17.97
2018-12-18T10:35:11.343Z,18.03
2018-12-18T10:37:47.640Z,17.30
2018-12-18T10:40:20.729Z,15.37
2018-12-18T10:42:56.172Z,13.50
2018-12-18T10:45:27.327Z,17.27
2018-12-18T10:48:00.620Z,16.90
2018-12-18T10:50:39.143Z,16.20
2018-12-18T10:53:10.489Z,15.60
2018-12-18T10:55:41.467Z,17.67
2018-12-18T10:58:12.388Z,16.43
2018-12-18T11:00:49.362Z,18.00
2018-12-18T11:03:23.657Z,21.17
2018-12-18T11:05:58.084Z,16.30
2018-12-18T11:08:30.776Z,15.60
2018-12-18T11:11:01.782Z,11.40
2018-12-18T11:13:38.244Z,21.23
2018-12-18T11:16:13.381Z,14.30
2018-12-18T11:18:47.793Z,15.17
2018-12-18T11:21:19.234Z,17.97
2018-12-18T11:23:50.104Z,17.13
2018-12-18T11:26:25.094Z,16.57
2018-12-18T11:28:59.973Z,16.40
2018-12-18T11:31:30.903Z,14.97
2018-12-18T11:37:00.312Z,12.57
2018-12-18T11:39:35.002Z,11.70
2018-12-18T11:42:09.987Z,12.70
2018-12-18T11:47:37.463Z,14.33
2018-12-18T11:50:11.365Z,12.27
2018-12-18T11:52:56.795Z,12.30
2018-12-18T11:55:31.917Z,12.80
2018-12-18T11:58:07.739Z,9.83
2018-12-18T12:00:55.943Z,10.97
2018-12-18T12:03:35.087Z,14.83
2018-12-18T12:06:05.913Z,12.70
2018-12-18T12:08:38.207Z,12.10
2018-12-18T12:11:14.564Z,10.67
2018-12-18T12:13:49.711Z,9.83
2018-12-18T12:16:24.407Z,14.53
2018-12-18T12:18:56.100Z,12.57
2018-12-18T12:21:28.485Z,9.33
2018-12-18T12:24:00.578Z,10.63
2018-12-18T12:26:34.027Z,11.70
2018-12-18T12:29:06.375Z,13.23
2018-12-18T12:31:37.617Z,15.37
2018-12-18T12:34:09.980Z,9.10
2018-12-18T12:40:21.032Z,10.07
2018-12-18T12:42:53.028Z,13.57
2018-12-18T12:45:24.168Z,11.10
2018-12-18T12:47:56.978Z,9.80
2018-12-18T12:50:28.231Z,14.20
2018-12-18T12:53:00.101Z,11.63
2018-12-18T12:55:31.368Z,9.77
2018-12-18T12:58:12.981Z,8.77
2018-12-18T13:00:44.149Z,11.87
2018-12-18T13:03:15.906Z,9.80
2018-12-18T13:05:48.188Z,10.73
2018-12-18T13:08:19.442Z,13.47
2018-12-18T13:10:50.699Z,13.27
2018-12-18T13:13:21.816Z,10.07
2018-12-18T13:15:52.765Z,10.30
2018-12-18T13:18:23.725Z,11.63
2018-12-18T13:20:54.669Z,7.50
2018-12-18T13:23:33.202Z,7.90
2018-12-18T13:26:04.312Z,7.73
2018-12-18T13:28:39.478Z,9.53
2018-12-18T13:31:11.994Z,11.77
2018-12-18T13:33:42.788Z,7.13
2018-12-18T13:36:16.340Z,9.90
2018-12-18T13:38:47.506Z,9.90
2018-12-18T13:41:18.346Z,7.60
2018-12-18T13:43:49.060Z,9.27
2018-12-18T13:46:19.891Z,7.07
2018-12-18T13:48:50.774Z,8.10
2018-12-18T13:51:22.509Z,8.40
2018-12-18T13:53:53.479Z,9.03
2018-12-18T13:56:24.332Z,9.47
2018-12-18T13:58:55.307Z,8.27
2018-12-18T14:01:53.627Z,8.67
2018-12-18T14:04:24.543Z,8.77
2018-12-18T14:06:55.743Z,7.93
2018-12-18T14:09:29.476Z,7.83
2018-12-18T14:12:19.403Z,8.17
2018-12-18T14:14:52.678Z,8.07
2018-12-18T14:17:23.784Z,8.23
2018-12-18T14:19:55.882Z,7.20
2018-12-18T14:22:26.606Z,8.47
2018-12-18T14:24:57.749Z,6.87
2018-12-18T14:27:28.491Z,8.07
2018-12-18T14:29:59.411Z,7.63
2018-12-18T14:35:21.840Z,7.77
2018-12-18T14:37:52.548Z,9.50
2018-12-18T14:40:23.977Z,7.70
2018-12-18T14:42:55.073Z,9.07
2018-12-18T14:45:27.026Z,9.83
2018-12-18T14:47:58.459Z,7.00
2018-12-18T14:50:30.058Z,11.43
2018-12-18T14:53:01.057Z,11.57
2018-12-18T14:55:32.889Z,8.97
2018-12-18T14:58:06.578Z,7.43
2018-12-18T15:00:37.423Z,11.57
2018-12-18T15:03:10.445Z,9.23
2018-12-18T15:05:41.169Z,8.30
2018-12-18T15:08:12.228Z,7.60
2018-12-18T15:10:43.145Z,9.93
2018-12-18T15:13:15.406Z,8.07
2018-12-18T15:15:57.766Z,10.23
2018-12-18T15:18:30.430Z,12.17
2018-12-18T15:21:01.587Z,9.03
2018-12-18T15:23:33.033Z,8.10
2018-12-18T15:26:04.736Z,8.13
2018-12-18T15:28:41.233Z,7.60
2018-12-18T15:34:49.140Z,8.97
2018-12-18T15:37:23.405Z,9.00
2018-12-18T15:39:57.514Z,6.37
2018-12-18T15:42:30.864Z,10.33
2018-12-18T15:45:10.755Z,11.40
2018-12-18T15:47:42.327Z,7.47
2018-12-18T15:50:14.042Z,5.63
2018-12-18T15:52:45.905Z,8.60
2018-12-18T15:55:17.408Z,7.47
2018-12-18T15:57:51.013Z,6.67
2018-12-18T16:00:23.569Z,8.83
2018-12-18T16:02:56.558Z,6.10
2018-12-18T16:05:32.355Z,12.60
2018-12-18T16:08:03.903Z,7.73
2018-12-18T16:10:35.653Z,8.57
2018-12-18T16:13:07.125Z,11.80
2018-12-18T16:15:38.176Z,8.67
2018-12-18T16:18:10.474Z,8.87
2018-12-18T16:20:48.617Z,6.73
2018-12-18T16:23:29.597Z,10.07
2018-12-18T16:26:13.222Z,6.27
2018-12-18T16:28:49.905Z,7.30
2018-12-18T16:31:33.538Z,8.93
2018-12-18T16:37:52.251Z,6.67
2018-12-18T16:40:30.298Z,10.13
2018-12-18T16:43:07.683Z,7.87
2018-12-18T16:45:46.748Z,9.80
2018-12-18T16:48:24.047Z,10.73
2018-12-18T16:50:59.285Z,9.40
2018-12-18T16:53:53.018Z,7.20
2018-12-18T16:56:29.517Z,9.13
2018-12-18T16:59:09.482Z,11.77
2018-12-18T17:01:50.978Z,8.60
2018-12-18T17:04:34.312Z,9.83
2018-12-18T17:07:11.898Z,11.27
2018-12-18T17:09:48.871Z,11.37
2018-12-18T17:12:28.735Z,10.37
2018-12-18T17:15:05.878Z,12.20
2018-12-18T17:17:42.162Z,13.37
2018-12-18T17:20:18.287Z,11.50
2018-12-18T17:23:01.126Z,9.57
2018-12-18T17:25:36.931Z,11.03
2018-12-18T17:28:16.945Z,7.53
2018-12-18T17:30:51.755Z,15.97
2018-12-18T17:33:29.925Z,7.20
2018-12-18T17:36:02.352Z,8.47
2018-12-18T17:38:33.586Z,10.73
2018-12-18T17:41:06.028Z,8.63
2018-12-18T17:43:37.898Z,11.10
2018-12-18T17:46:09.102Z,8.50
2018-12-18T17:48:39.882Z,13.87
2018-12-18T17:51:10.630Z,10.40
2018-12-18T17:53:41.981Z,11.67
2018-12-18T17:56:14.840Z,9.80
2018-12-18T17:58:45.752Z,12.60
2018-12-18T18:01:18.861Z,9.07
2018-12-18T18:03:52.409Z,7.30
2018-12-18T18:06:24.158Z,8.67
2018-12-18T18:08:55.270Z,11.83
2018-12-18T18:11:26.154Z,12.00
2018-12-18T18:13:56.990Z,9.77
2018-12-18T18:16:27.923Z,10.10
2018-12-18T18:18:58.772Z,10.97
2018-12-18T18:21:30.863Z,9.47
2018-12-18T18:24:02.036Z,10.03
2018-12-18T18:26:33.041Z,13.33
2018-12-18T18:29:03.980Z,10.47
2018-12-18T18:31:36.287Z,11.43
2018-12-18T18:34:07.866Z,11.37
2018-12-18T18:36:38.982Z,11.00
2018-12-18T18:39:27.525Z,11.60
2018-12-18T18:42:02.506Z,12.27
2018-12-18T18:44:34.081Z,12.63
2018-12-18T18:47:04.914Z,13.50
2018-12-18T18:49:35.676Z,13.37
2018-12-18T18:52:06.757Z,13.27
2018-12-18T18:54:38.994Z,10.83
2018-12-18T18:57:10.504Z,11.73
2018-12-18T18:59:42.626Z,11.63
2018-12-18T19:02:13.439Z,16.67
2018-12-18T19:04:44.125Z,14.27
2018-12-18T19:07:14.852Z,20.03
2018-12-18T19:09:51.605Z,11.17
2018-12-18T19:12:30.918Z,14.60
2018-12-18T19:15:05.347Z,15.50
2018-12-18T19:17:40.374Z,12.13
2018-12-18T19:20:17.336Z,10.43
2018-12-18T19:22:49.673Z,17.03
2018-12-18T19:25:24.118Z,13.67
2018-12-18T19:27:58.630Z,13.37
2018-12-18T19:30:42.269Z,12.53
2018-12-18T19:33:16.850Z,12.23
2018-12-18T19:35:51.073Z,11.60
2018-12-18T19:38:27.454Z,14.87
2018-12-18T19:41:05.292Z,13.40
2018-12-18T19:43:41.485Z,11.13
2018-12-18T19:46:19.832Z,12.97
2018-12-18T19:48:58.464Z,14.57
2018-12-18T19:51:36.414Z,16.50
2018-12-18T19:54:14.990Z,14.83
2018-12-18T19:56:54.287Z,16.93
2018-12-18T19:59:33.099Z,11.03
2018-12-18T20:02:13.467Z,13.90
2018-12-18T20:12:46.505Z,13.33
2018-12-18T20:15:19.071Z,15.37
2018-12-18T20:17:52.885Z,13.70
2018-12-18T20:23:48.948Z,13.73
2018-12-18T20:26:26.679Z,14.60
2018-12-18T20:28:59.408Z,19.60
2018-12-18T20:34:50.757Z,14.80
2018-12-18T20:37:26.211Z,16.20
2018-12-18T20:39:57.281Z,19.80
2018-12-18T20:42:28.381Z,14.80
2018-12-18T20:45:03.943Z,14.50
2018-12-18T20:47:39.309Z,15.47
2018-12-18T20:50:10.632Z,15.90
2018-12-18T20:52:46.083Z,16.33
2018-12-18T20:55:18.314Z,17.67
2018-12-18T20:57:49.570Z,22.47
2018-12-18T21:00:21.125Z,18.97
2018-12-18T21:02:52.277Z,18.17
2018-12-18T21:05:23.520Z,18.83
2018-12-18T21:07:54.477Z,18.83
2018-12-18T21:10:26.665Z,16.70
2018-12-18T21:13:02.355Z,19.00
2018-12-18T21:15:34.954Z,20.07
2018-12-18T21:18:08.653Z,17.80
2018-12-18T21:20:39.754Z,18.77
2018-12-18T21:23:10.839Z,22.67
2018-12-18T21:25:43.596Z,18.73
2018-12-18T21:28:15.084Z,16.50
2018-12-18T21:30:50.078Z,16.90
2018-12-18T21:33:21.386Z,16.83
2018-12-18T21:35:53.696Z,16.33
2018-12-18T21:38:30.432Z,20.23
2018-12-18T21:41:14.923Z,17.37
2018-12-18T21:43:53.567Z,18.83
2018-12-18T21:49:24.980Z,21.77
2018-12-18T21:52:03.848Z,19.43
2018-12-18T21:54:41.188Z,18.20
2018-12-18T21:57:17.714Z,20.20
2018-12-18T22:00:00.641Z,18.53
2018-12-18T22:02:34.370Z,17.77
2018-12-18T22:08:02.900Z,20.97
2018-12-18T22:10:39.414Z,17.23
2018-12-18T22:13:15.064Z,19.70
2018-12-18T22:15:51.402Z,21.40
2018-12-18T22:18:23.215Z,19.27
2018-12-18T22:20:58.217Z,18.70
2018-12-18T22:23:33.190Z,20.50
2018-12-18T22:26:09.184Z,22.77
2018-12-18T22:28:45.196Z,18.90
2018-12-18T22:31:16.586Z,18.50
2018-12-18T22:33:48.374Z,20.70
2018-12-18T22:36:21.088Z,18.63
2018-12-18T22:38:58.166Z,20.57
2018-12-18T22:41:29.860Z,19.00
2018-12-18T22:44:05.805Z,20.17
2018-12-18T22:46:45.747Z,22.07
2018-12-18T22:49:16.655Z,21.73
2018-12-18T22:51:48.163Z,19.40
2018-12-18T22:54:19.958Z,22.80
2018-12-18T22:56:51.128Z,21.67
2018-12-18T22:59:24.495Z,18.60
2018-12-18T23:02:03.788Z,22.53
2018-12-18T23:04:39.384Z,22.40
2018-12-18T23:07:16.155Z,23.37
2018-12-18T23:09:54.258Z,26.43
2018-12-18T23:12:28.579Z,21.97
2018-12-18T23:15:15.073Z,20.13
2018-12-18T23:17:49.391Z,19.27
2018-12-18T23:20:26.438Z,22.97
2018-12-18T23:22:58.612Z,19.10
2018-12-18T23:25:41.324Z,19.40
2018-12-18T23:28:15.725Z,16.43
2018-12-18T23:30:50.396Z,16.77
2018-12-18T23:33:25.269Z,19.53
2018-12-18T23:35:59.830Z,19.50
2018-12-18T23:38:36.793Z,18.20
2018-12-18T23:41:12.895Z,16.73
2018-12-18T23:43:48.174Z,19.77
2018-12-18T23:46:21.022Z,19.17
2018-12-18T23:48:51.991Z,15.77
2018-12-18T23:51:30.188Z,15.10
2018-12-18T23:54:04.779Z,16.87
2018-12-18T23:56:40.855Z,16.97
2018-12-18T23:59:12.014Z,19.33
